sensor_id;sensor_type;location;lat;lon;timestamp;pressure;altitude;pressure_sealevel;temperature;humidity
49473;BME280;67434;50.956;6.918;2023-03-04T00:01:14;102068.84;;;3.00;74.79
49473;BME280;67434;50.956;6.918;2023-03-04T00:03:40;102073.13;;;3.09;74.91
49473;BME280;67434;50.956;6.918;2023-03-04T00:06:05;102075.16;;;3.07;75.10
49473;BME280;67434;50.956;6.918;2023-03-04T00:08:32;102068.66;;;3.02;75.29
49473;BME280;67434;50.956;6.918;2023-03-04T00:10:57;102076.88;;;2.92;75.12
49473;BME280;67434;50.956;6.918;2023-03-04T00:13:23;102069.38;;;2.88;75.36
49473;BME280;67434;50.956;6.918;2023-03-04T00:15:49;102071.19;;;2.95;75.36
49473;BME280;67434;50.956;6.918;2023-03-04T00:18:14;102074.50;;;2.97;75.36
49473;BME280;67434;50.956;6.918;2023-03-04T00:20:40;102069.50;;;2.94;75.51
49473;BME280;67434;50.956;6.918;2023-03-04T00:23:06;102070.53;;;2.93;76.11
49473;BME280;67434;50.956;6.918;2023-03-04T00:25:31;102063.81;;;2.97;75.62
49473;BME280;67434;50.956;6.918;2023-03-04T00:27:58;102068.84;;;3.00;75.48
49473;BME280;67434;50.956;6.918;2023-03-04T00:30:23;102070.34;;;2.95;76.00
49473;BME280;67434;50.956;6.918;2023-03-04T00:32:49;102062.31;;;3.03;75.37
49473;BME280;67434;50.956;6.918;2023-03-04T00:35:14;102065.16;;;3.01;75.93
49473;BME280;67434;50.956;6.918;2023-03-04T00:37:40;102059.81;;;3.01;76.11
49473;BME280;67434;50.956;6.918;2023-03-04T00:40:06;102061.13;;;3.05;76.33
49473;BME280;67434;50.956;6.918;2023-03-04T00:42:32;102058.47;;;3.05;76.05
49473;BME280;67434;50.956;6.918;2023-03-04T00:44:57;102053.06;;;3.13;75.66
49473;BME280;67434;50.956;6.918;2023-03-04T00:47:23;102058.94;;;3.09;76.11
49473;BME280;67434;50.956;6.918;2023-03-04T00:49:48;102046.72;;;3.14;75.31
49473;BME280;67434;50.956;6.918;2023-03-04T00:52:13;102052.25;;;3.13;75.45
49473;BME280;67434;50.956;6.918;2023-03-04T00:54:39;102046.06;;;3.12;75.65
49473;BME280;67434;50.956;6.918;2023-03-04T00:57:04;102044.88;;;3.15;75.14
49473;BME280;67434;50.956;6.918;2023-03-04T00:59:29;102047.38;;;3.17;76.28
49473;BME280;67434;50.956;6.918;2023-03-04T01:01:55;102044.06;;;3.14;76.00
49473;BME280;67434;50.956;6.918;2023-03-04T01:04:20;102043.03;;;3.16;75.74
49473;BME280;67434;50.956;6.918;2023-03-04T01:06:46;102047.03;;;3.20;75.25
49473;BME280;67434;50.956;6.918;2023-03-04T01:09:11;102040.38;;;3.16;75.63
49473;BME280;67434;50.956;6.918;2023-03-04T01:11:36;102043.03;;;3.16;76.00
49473;BME280;67434;50.956;6.918;2023-03-04T01:14:02;102038.34;;;3.18;74.97
49473;BME280;67434;50.956;6.918;2023-03-04T01:16:27;102035.97;;;3.23;75.27
49473;BME280;67434;50.956;6.918;2023-03-04T01:18:53;102035.63;;;3.26;75.44
49473;BME280;67434;50.956;6.918;2023-03-04T01:21:18;102040.06;;;3.33;74.83
49473;BME280;67434;50.956;6.918;2023-03-04T01:23:43;102040.59;;;3.37;74.49
49473;BME280;67434;50.956;6.918;2023-03-04T01:26:09;102026.72;;;3.33;74.63
49473;BME280;67434;50.956;6.918;2023-03-04T01:28:34;102033.88;;;3.41;74.45
49473;BME280;67434;50.956;6.918;2023-03-04T01:31:01;102022.16;;;3.42;74.44
49473;BME280;67434;50.956;6.918;2023-03-04T01:33:27;102032.03;;;3.41;73.70
49473;BME280;67434;50.956;6.918;2023-03-04T01:35:53;102028.53;;;3.41;73.80
49473;BME280;67434;50.956;6.918;2023-03-04T01:38:18;102019.50;;;3.42;73.75
49473;BME280;67434;50.956;6.918;2023-03-04T01:40:43;102021.50;;;3.40;73.69
49473;BME280;67434;50.956;6.918;2023-03-04T01:43:20;102012.13;;;3.44;73.47
49473;BME280;67434;50.956;6.918;2023-03-04T01:45:48;102014.16;;;3.42;74.20
49473;BME280;67434;50.956;6.918;2023-03-04T01:48:17;102014.31;;;3.40;74.31
49473;BME280;67434;50.956;6.918;2023-03-04T01:50:44;102003.09;;;3.45;73.44
49473;BME280;67434;50.956;6.918;2023-03-04T01:53:17;102005.94;;;3.43;73.74
49473;BME280;67434;50.956;6.918;2023-03-04T01:55:44;101998.13;;;3.42;73.49
49473;BME280;67434;50.956;6.918;2023-03-04T01:58:11;101996.09;;;3.44;73.41
49473;BME280;67434;50.956;6.918;2023-03-04T02:00:37;102003.09;;;3.45;73.41
49473;BME280;67434;50.956;6.918;2023-03-04T02:03:08;102002.63;;;3.41;72.92
49473;BME280;67434;50.956;6.918;2023-03-04T02:05:37;101996.91;;;3.44;72.97
49473;BME280;67434;50.956;6.918;2023-03-04T02:08:04;101992.28;;;3.38;73.39
49473;BME280;67434;50.956;6.918;2023-03-04T02:10:30;101990.94;;;3.42;73.07
49473;BME280;67434;50.956;6.918;2023-03-04T02:12:57;101991.75;;;3.43;73.08
49473;BME280;67434;50.956;6.918;2023-03-04T02:15:23;101991.75;;;3.43;73.52
49473;BME280;67434;50.956;6.918;2023-03-04T02:17:49;101990.09;;;3.42;73.09
49473;BME280;67434;50.956;6.918;2023-03-04T02:22:56;101981.25;;;3.41;73.06
49473;BME280;67434;50.956;6.918;2023-03-04T02:25:30;101978.38;;;3.43;73.17
49473;BME280;67434;50.956;6.918;2023-03-04T02:27:57;101984.56;;;3.43;73.14
49473;BME280;67434;50.956;6.918;2023-03-04T02:30:23;101984.69;;;3.50;72.84
49473;BME280;67434;50.956;6.918;2023-03-04T02:32:50;101980.69;;;3.46;73.00
49473;BME280;67434;50.956;6.918;2023-03-04T02:35:17;101967.91;;;3.56;72.52
49473;BME280;67434;50.956;6.918;2023-03-04T02:37:43;101971.22;;;3.58;72.35
49473;BME280;67434;50.956;6.918;2023-03-04T02:40:14;101970.88;;;3.61;72.08
49473;BME280;67434;50.956;6.918;2023-03-04T02:42:43;101968.84;;;3.63;71.32
49473;BME280;67434;50.956;6.918;2023-03-04T02:48:07;101973.00;;;3.66;71.59
49473;BME280;67434;50.956;6.918;2023-03-04T02:50:37;101966.34;;;3.62;72.51
49473;BME280;67434;50.956;6.918;2023-03-04T02:53:05;101965.44;;;3.69;72.11
49473;BME280;67434;50.956;6.918;2023-03-04T02:55:31;101968.44;;;3.74;70.91
49473;BME280;67434;50.956;6.918;2023-03-04T02:57:57;101968.44;;;3.74;71.34
49473;BME280;67434;50.956;6.918;2023-03-04T03:00:23;101965.75;;;3.74;71.21
49473;BME280;67434;50.956;6.918;2023-03-04T03:02:48;101959.56;;;3.74;71.46
49473;BME280;67434;50.956;6.918;2023-03-04T03:05:13;101960.88;;;3.78;71.47
49473;BME280;67434;50.956;6.918;2023-03-04T03:07:39;101963.38;;;3.80;71.20
49473;BME280;67434;50.956;6.918;2023-03-04T03:10:05;101964.94;;;3.74;71.48
49473;BME280;67434;50.956;6.918;2023-03-04T03:12:30;101951.25;;;3.69;71.37
49473;BME280;67434;50.956;6.918;2023-03-04T03:14:55;101963.97;;;3.67;72.44
49473;BME280;67434;50.956;6.918;2023-03-04T03:17:21;101953.91;;;3.69;72.02
49473;BME280;67434;50.956;6.918;2023-03-04T03:19:46;101958.75;;;3.73;71.45
49473;BME280;67434;50.956;6.918;2023-03-04T03:22:11;101955.88;;;3.75;71.67
49473;BME280;67434;50.956;6.918;2023-03-04T03:24:37;101953.41;;;3.73;72.16
49473;BME280;67434;50.956;6.918;2023-03-04T03:27:02;101948.78;;;3.82;70.95
49473;BME280;67434;50.956;6.918;2023-03-04T03:29:27;101951.28;;;3.84;71.14
49473;BME280;67434;50.956;6.918;2023-03-04T03:31:53;101945.28;;;3.82;71.41
49473;BME280;67434;50.956;6.918;2023-03-04T03:34:18;101943.91;;;3.86;71.63
49473;BME280;67434;50.956;6.918;2023-03-04T03:36:44;101940.50;;;3.92;71.54
49473;BME280;67434;50.956;6.918;2023-03-04T03:39:09;101939.84;;;3.90;71.56
49473;BME280;67434;50.956;6.918;2023-03-04T03:41:35;101934.22;;;3.85;71.27
49473;BME280;67434;50.956;6.918;2023-03-04T03:44:00;101940.97;;;3.81;72.37
49473;BME280;67434;50.956;6.918;2023-03-04T03:46:26;101936.91;;;3.85;70.99
49473;BME280;67434;50.956;6.918;2023-03-04T03:48:51;101935.06;;;3.85;71.61
49473;BME280;67434;50.956;6.918;2023-03-04T03:51:17;101929.53;;;3.87;71.04
49473;BME280;67434;50.956;6.918;2023-03-04T03:53:42;101931.28;;;3.80;71.82
49473;BME280;67434;50.956;6.918;2023-03-04T03:56:07;101941.97;;;3.80;71.89
49473;BME280;67434;50.956;6.918;2023-03-04T03:58:33;101934.31;;;3.91;72.21
49473;BME280;67434;50.956;6.918;2023-03-04T04:00:58;101933.31;;;3.92;71.17
49473;BME280;67434;50.956;6.918;2023-03-04T04:03:24;101927.22;;;3.84;71.42
49473;BME280;67434;50.956;6.918;2023-03-04T04:05:49;101935.88;;;3.86;71.99
49473;BME280;67434;50.956;6.918;2023-03-04T04:08:16;101932.19;;;3.87;72.01
49473;BME280;67434;50.956;6.918;2023-03-04T04:10:42;101934.22;;;3.85;72.17
49473;BME280;67434;50.956;6.918;2023-03-04T04:13:08;101938.94;;;3.83;71.74
49473;BME280;67434;50.956;6.918;2023-03-04T04:15:33;101927.41;;;3.82;71.87
49473;BME280;67434;50.956;6.918;2023-03-04T04:17:59;101928.88;;;3.85;71.92
49473;BME280;67434;50.956;6.918;2023-03-04T04:20:24;101933.66;;;3.89;71.42
49473;BME280;67434;50.956;6.918;2023-03-04T04:22:51;101931.00;;;3.89;71.48
49473;BME280;67434;50.956;6.918;2023-03-04T04:25:16;101931.00;;;3.89;71.35
49473;BME280;67434;50.956;6.918;2023-03-04T04:27:42;101940.88;;;3.89;71.37
49473;BME280;67434;50.956;6.918;2023-03-04T04:30:07;101928.97;;;3.91;71.38
49473;BME280;67434;50.956;6.918;2023-03-04T04:32:33;101936.16;;;3.91;71.18
49473;BME280;67434;50.956;6.918;2023-03-04T04:34:58;101932.75;;;3.82;71.79
49473;BME280;67434;50.956;6.918;2023-03-04T04:37:24;101932.94;;;3.81;72.76
49473;BME280;67434;50.956;6.918;2023-03-04T04:39:49;101938.38;;;3.87;71.70
49473;BME280;67434;50.956;6.918;2023-03-04T04:42:16;101931.09;;;3.81;71.89
49473;BME280;67434;50.956;6.918;2023-03-04T04:44:41;101933.56;;;3.83;71.79
49473;BME280;67434;50.956;6.918;2023-03-04T04:47:08;101926.84;;;3.87;72.16
49473;BME280;67434;50.956;6.918;2023-03-04T04:49:34;101939.19;;;3.88;71.57
49473;BME280;67434;50.956;6.918;2023-03-04T04:51:59;101928.13;;;3.91;71.80
49473;BME280;67434;50.956;6.918;2023-03-04T04:54:25;101929.34;;;3.88;72.01
49473;BME280;67434;50.956;6.918;2023-03-04T04:56:50;101938.84;;;3.91;71.62
49473;BME280;67434;50.956;6.918;2023-03-04T04:59:16;101928.31;;;3.89;71.00
49473;BME280;67434;50.956;6.918;2023-03-04T05:01:41;101932.84;;;3.89;71.44
49473;BME280;67434;50.956;6.918;2023-03-04T05:04:06;101933.66;;;3.89;70.80
49473;BME280;67434;50.956;6.918;2023-03-04T05:06:32;101933.66;;;3.89;71.31
49473;BME280;67434;50.956;6.918;2023-03-04T05:08:57;101940.88;;;3.89;71.44
49473;BME280;67434;50.956;6.918;2023-03-04T05:11:23;101932.00;;;3.88;71.42
49473;BME280;67434;50.956;6.918;2023-03-04T05:13:48;101931.81;;;3.90;71.31
49473;BME280;67434;50.956;6.918;2023-03-04T05:16:14;101931.81;;;3.90;71.71
49473;BME280;67434;50.956;6.918;2023-03-04T05:18:40;101937.44;;;3.95;71.30
49473;BME280;67434;50.956;6.918;2023-03-04T05:21:06;101935.59;;;3.95;71.06
49473;BME280;67434;50.956;6.918;2023-03-04T05:23:34;101934.78;;;3.95;71.12
49473;BME280;67434;50.956;6.918;2023-03-04T05:26:01;101932.38;;;4.00;70.65
49473;BME280;67434;50.956;6.918;2023-03-04T05:28:27;101937.16;;;4.04;71.31
49473;BME280;67434;50.956;6.918;2023-03-04T05:30:52;101936.34;;;4.04;70.45
49473;BME280;67434;50.956;6.918;2023-03-04T05:33:18;101930.34;;;4.02;71.27
49473;BME280;67434;50.956;6.918;2023-03-04T05:35:44;101928.69;;;4.01;71.17
49473;BME280;67434;50.956;6.918;2023-03-04T05:38:12;101931.81;;;4.04;71.06
49473;BME280;67434;50.956;6.918;2023-03-04T05:40:38;101933.66;;;4.04;70.72
49473;BME280;67434;50.956;6.918;2023-03-04T05:43:03;101931.44;;;4.07;70.99
49473;BME280;67434;50.956;6.918;2023-03-04T05:45:29;101931.63;;;4.06;71.33
49473;BME280;67434;50.956;6.918;2023-03-04T05:47:55;101942.34;;;4.06;71.08
49473;BME280;67434;50.956;6.918;2023-03-04T05:50:22;101939.66;;;4.06;70.84
49473;BME280;67434;50.956;6.918;2023-03-04T05:52:48;101937.34;;;4.03;71.12
49473;BME280;67434;50.956;6.918;2023-03-04T05:55:14;101941.22;;;4.00;70.84
49473;BME280;67434;50.956;6.918;2023-03-04T05:57:40;101947.50;;;4.07;70.98
49473;BME280;67434;50.956;6.918;2023-03-04T06:00:06;101946.78;;;4.14;71.12
49473;BME280;67434;50.956;6.918;2023-03-04T06:02:36;101946.84;;;4.05;70.90
49473;BME280;67434;50.956;6.918;2023-03-04T06:05:02;101949.34;;;4.07;71.11
49473;BME280;67434;50.956;6.918;2023-03-04T06:07:28;101942.63;;;4.11;70.80
49473;BME280;67434;50.956;6.918;2023-03-04T06:09:53;101948.63;;;4.13;70.48
49473;BME280;67434;50.956;6.918;2023-03-04T06:12:18;101951.50;;;4.12;71.02
49473;BME280;67434;50.956;6.918;2023-03-04T06:14:44;101948.19;;;4.10;71.09
49473;BME280;67434;50.956;6.918;2023-03-04T06:17:09;101948.34;;;4.08;71.01
49473;BME280;67434;50.956;6.918;2023-03-04T06:19:34;101953.41;;;4.03;71.58
49473;BME280;67434;50.956;6.918;2023-03-04T06:22:02;101960.72;;;4.09;71.30
49473;BME280;67434;50.956;6.918;2023-03-04T06:24:27;101956.91;;;4.03;71.58
49473;BME280;67434;50.956;6.918;2023-03-04T06:26:53;101953.69;;;4.08;71.23
49473;BME280;67434;50.956;6.918;2023-03-04T06:29:18;101955.19;;;4.11;71.73
49473;BME280;67434;50.956;6.918;2023-03-04T06:31:43;101959.03;;;4.08;71.97
49473;BME280;67434;50.956;6.918;2023-03-04T06:34:10;101959.41;;;4.05;72.41
49473;BME280;67434;50.956;6.918;2023-03-04T06:36:36;101966.91;;;4.10;72.20
49473;BME280;67434;50.956;6.918;2023-03-04T06:39:03;101965.16;;;4.17;71.97
49473;BME280;67434;50.956;6.918;2023-03-04T06:41:29;101962.94;;;4.20;71.58
49473;BME280;67434;50.956;6.918;2023-03-04T06:43:54;101977.97;;;4.21;71.35
49473;BME280;67434;50.956;6.918;2023-03-04T06:46:20;101974.47;;;4.21;71.17
49473;BME280;67434;50.956;6.918;2023-03-04T06:48:45;101971.69;;;4.14;71.48
49473;BME280;67434;50.956;6.918;2023-03-04T06:51:11;101979.00;;;4.20;71.95
49473;BME280;67434;50.956;6.918;2023-03-04T06:53:37;101983.16;;;4.23;71.35
49473;BME280;67434;50.956;6.918;2023-03-04T06:56:04;101979.81;;;4.21;71.70
49473;BME280;67434;50.956;6.918;2023-03-04T06:58:29;101981.28;;;4.23;71.63
49473;BME280;67434;50.956;6.918;2023-03-04T07:00:55;101978.44;;;4.25;71.82
49473;BME280;67434;50.956;6.918;2023-03-04T07:03:21;101981.94;;;4.25;71.56
49473;BME280;67434;50.956;6.918;2023-03-04T07:05:46;101985.63;;;4.24;71.39
49473;BME280;67434;50.956;6.918;2023-03-04T07:08:12;101993.66;;;4.24;71.77
49473;BME280;67434;50.956;6.918;2023-03-04T07:10:37;101988.94;;;4.26;71.47
49473;BME280;67434;50.956;6.918;2023-03-04T07:13:02;101992.91;;;4.30;71.68
49473;BME280;67434;50.956;6.918;2023-03-04T07:15:28;101983.69;;;4.33;71.84
49473;BME280;67434;50.956;6.918;2023-03-04T07:17:53;101992.56;;;4.33;72.13
49473;BME280;67434;50.956;6.918;2023-03-04T07:20:19;101989.50;;;4.36;71.75
49473;BME280;67434;50.956;6.918;2023-03-04T07:22:45;101990.06;;;4.32;71.85
49473;BME280;67434;50.956;6.918;2023-03-04T07:25:10;101995.31;;;4.25;71.96
49473;BME280;67434;50.956;6.918;2023-03-04T07:27:36;101994.59;;;4.31;71.76
49473;BME280;67434;50.956;6.918;2023-03-04T07:30:04;102003.91;;;4.35;71.60
49473;BME280;67434;50.956;6.918;2023-03-04T07:32:30;102007.31;;;4.29;72.04
49473;BME280;67434;50.956;6.918;2023-03-04T07:34:55;102006.50;;;4.29;72.10
49473;BME280;67434;50.956;6.918;2023-03-04T07:37:21;102001.41;;;4.34;71.99
49473;BME280;67434;50.956;6.918;2023-03-04T07:39:46;102001.41;;;4.34;71.45
49473;BME280;67434;50.956;6.918;2023-03-04T07:42:12;102006.22;;;4.38;71.70
49473;BME280;67434;50.956;6.918;2023-03-04T07:44:37;102002.44;;;4.48;71.07
49473;BME280;67434;50.956;6.918;2023-03-04T07:47:03;102009.16;;;4.44;71.24
49473;BME280;67434;50.956;6.918;2023-03-04T07:49:28;102012.97;;;4.49;70.84
49473;BME280;67434;50.956;6.918;2023-03-04T07:51:53;102004.44;;;4.46;70.50
49473;BME280;67434;50.956;6.918;2023-03-04T07:54:18;102003.91;;;4.50;71.15
49473;BME280;67434;50.956;6.918;2023-03-04T07:56:44;102007.44;;;4.51;71.19
49473;BME280;67434;50.956;6.918;2023-03-04T07:59:10;102004.38;;;4.54;70.56
49473;BME280;67434;50.956;6.918;2023-03-04T08:01:36;102005.47;;;4.59;70.53
49473;BME280;67434;50.956;6.918;2023-03-04T08:04:03;102012.31;;;4.62;70.21
49473;BME280;67434;50.956;6.918;2023-03-04T08:06:30;102004.72;;;4.65;69.56
49473;BME280;67434;50.956;6.918;2023-03-04T08:09:01;102011.09;;;4.64;70.27
49473;BME280;67434;50.956;6.918;2023-03-04T08:11:29;102004.34;;;4.68;69.87
49473;BME280;67434;50.956;6.918;2023-03-04T08:13:56;102003.13;;;4.71;69.52
49473;BME280;67434;50.956;6.918;2023-03-04T08:16:22;102015.25;;;4.67;69.81
49473;BME280;67434;50.956;6.918;2023-03-04T08:18:51;102005.81;;;4.71;69.41
49473;BME280;67434;50.956;6.918;2023-03-04T08:21:18;102015.69;;;4.70;69.93
49473;BME280;67434;50.956;6.918;2023-03-04T08:23:45;102015.78;;;4.77;69.67
49473;BME280;67434;50.956;6.918;2023-03-04T08:26:17;102008.38;;;4.79;69.80
49473;BME280;67434;50.956;6.918;2023-03-04T08:28:43;102011.16;;;4.86;69.65
49473;BME280;67434;50.956;6.918;2023-03-04T08:31:11;102009.84;;;4.82;69.80
49473;BME280;67434;50.956;6.918;2023-03-04T08:33:37;102011.44;;;4.76;70.23
49473;BME280;67434;50.956;6.918;2023-03-04T08:36:03;102007.38;;;4.80;70.17
49473;BME280;67434;50.956;6.918;2023-03-04T08:38:28;102020.69;;;4.88;69.81
49473;BME280;67434;50.956;6.918;2023-03-04T08:40:55;102018.00;;;4.88;69.87
49473;BME280;67434;50.956;6.918;2023-03-04T08:43:21;102020.88;;;4.87;70.42
49473;BME280;67434;50.956;6.918;2023-03-04T08:45:47;102018.66;;;4.76;70.51
49473;BME280;67434;50.956;6.918;2023-03-04T08:48:13;102034.06;;;4.74;70.95
49473;BME280;67434;50.956;6.918;2023-03-04T08:50:39;102035.94;;;4.73;71.26
49473;BME280;67434;50.956;6.918;2023-03-04T08:53:04;102033.88;;;4.75;71.27
49473;BME280;67434;50.956;6.918;2023-03-04T08:55:29;102029.38;;;4.76;71.26
49473;BME280;67434;50.956;6.918;2023-03-04T08:57:55;102029.34;;;4.90;70.87
49473;BME280;67434;50.956;6.918;2023-03-04T09:00:20;102040.41;;;5.02;71.11
49473;BME280;67434;50.956;6.918;2023-03-04T09:02:48;102028.38;;;5.13;70.99
49473;BME280;67434;50.956;6.918;2023-03-04T09:05:13;102020.72;;;5.10;71.60
49473;BME280;67434;50.956;6.918;2023-03-04T09:07:39;102016.78;;;5.27;71.04
49473;BME280;67434;50.956;6.918;2023-03-04T09:10:05;102011.44;;;5.27;70.70
49473;BME280;67434;50.956;6.918;2023-03-04T09:12:30;102013.78;;;5.37;70.58
49473;BME280;67434;50.956;6.918;2023-03-04T09:14:56;102014.53;;;5.52;70.02
49473;BME280;67434;50.956;6.918;2023-03-04T09:17:22;102011.41;;;5.70;69.59
49473;BME280;67434;50.956;6.918;2023-03-04T09:19:47;102024.59;;;5.64;69.89
49473;BME280;67434;50.956;6.918;2023-03-04T09:22:12;102020.53;;;5.75;69.71
49473;BME280;67434;50.956;6.918;2023-03-04T09:24:38;102023.22;;;5.75;69.64
49473;BME280;67434;50.956;6.918;2023-03-04T09:27:04;102016.91;;;5.61;70.58
49473;BME280;67434;50.956;6.918;2023-03-04T09:29:29;102019.50;;;5.76;69.85
49473;BME280;67434;50.956;6.918;2023-03-04T09:31:54;102023.28;;;6.03;69.44
49473;BME280;67434;50.956;6.918;2023-03-04T09:34:20;102018.75;;;6.04;69.15
49473;BME280;67434;50.956;6.918;2023-03-04T09:36:45;102013.16;;;5.84;70.15
49473;BME280;67434;50.956;6.918;2023-03-04T09:39:11;102026.63;;;5.62;70.66
49473;BME280;67434;50.956;6.918;2023-03-04T09:41:43;102021.56;;;5.74;71.14
49473;BME280;67434;50.956;6.918;2023-03-04T09:44:29;102020.75;;;5.95;70.00
49473;BME280;67434;50.956;6.918;2023-03-04T09:47:01;102017.94;;;5.88;69.76
49473;BME280;67434;50.956;6.918;2023-03-04T09:49:28;102018.63;;;5.90;69.39
49473;BME280;67434;50.956;6.918;2023-03-04T09:52:17;102011.66;;;5.96;69.04
49473;BME280;67434;50.956;6.918;2023-03-04T09:54:50;102006.94;;;5.98;69.46
49473;BME280;67434;50.956;6.918;2023-03-04T09:57:33;102004.44;;;5.97;69.34
49473;BME280;67434;50.956;6.918;2023-03-04T10:05:18;102004.09;;;5.85;69.66
49473;BME280;67434;50.956;6.918;2023-03-04T10:07:49;102012.50;;;5.75;69.79
49473;BME280;67434;50.956;6.918;2023-03-04T10:10:25;102005.28;;;5.76;69.37
49473;BME280;67434;50.956;6.918;2023-03-04T10:12:54;102008.44;;;5.86;69.54
49473;BME280;67434;50.956;6.918;2023-03-04T10:15:40;102005.13;;;6.05;68.61
49473;BME280;67434;50.956;6.918;2023-03-04T10:18:17;102007.28;;;6.23;67.67
49473;BME280;67434;50.956;6.918;2023-03-04T10:23:33;101990.78;;;6.26;67.18
49473;BME280;67434;50.956;6.918;2023-03-04T10:26:12;102000.38;;;6.35;67.03
49473;BME280;67434;50.956;6.918;2023-03-04T10:28:38;101996.13;;;6.19;67.50
49473;BME280;67434;50.956;6.918;2023-03-04T10:33:53;101995.75;;;5.73;71.04
49473;BME280;67434;50.956;6.918;2023-03-04T10:39:18;101991.03;;;5.97;71.20
49473;BME280;67434;50.956;6.918;2023-03-04T10:42:03;101993.44;;;5.91;71.50
49473;BME280;67434;50.956;6.918;2023-03-04T10:44:31;101993.19;;;6.14;71.12
49473;BME280;67434;50.956;6.918;2023-03-04T10:46:57;101992.38;;;6.48;70.42
49473;BME280;67434;50.956;6.918;2023-03-04T10:49:25;101990.28;;;6.92;68.77
49473;BME280;67434;50.956;6.918;2023-03-04T10:52:00;101986.97;;;6.89;68.16
49473;BME280;67434;50.956;6.918;2023-03-04T10:54:47;101980.13;;;6.80;68.78
49473;BME280;67434;50.956;6.918;2023-03-04T10:57:17;101979.31;;;6.93;68.18
49473;BME280;67434;50.956;6.918;2023-03-04T10:59:58;101979.50;;;6.78;68.56
49473;BME280;67434;50.956;6.918;2023-03-04T11:02:27;101975.44;;;6.48;69.39
49473;BME280;67434;50.956;6.918;2023-03-04T11:05:19;101981.28;;;6.23;70.46
49473;BME280;67434;50.956;6.918;2023-03-04T11:07:58;101985.22;;;6.27;70.93
49473;BME280;67434;50.956;6.918;2023-03-04T11:13:22;101977.22;;;6.75;70.39
49473;BME280;67434;50.956;6.918;2023-03-04T11:15:54;101978.34;;;7.14;68.71
49473;BME280;67434;50.956;6.918;2023-03-04T11:18:23;101969.06;;;7.23;67.73
49473;BME280;67434;50.956;6.918;2023-03-04T11:20:55;101971.16;;;7.47;67.46
49473;BME280;67434;50.956;6.918;2023-03-04T11:23:42;101959.53;;;7.27;67.21
49473;BME280;67434;50.956;6.918;2023-03-04T11:26:12;101972.19;;;7.60;66.29
49473;BME280;67434;50.956;6.918;2023-03-04T11:31:19;101958.31;;;7.23;66.68
49473;BME280;67434;50.956;6.918;2023-03-04T11:37:11;101943.56;;;7.06;67.45
49473;BME280;67434;50.956;6.918;2023-03-04T11:45:04;101955.97;;;6.94;67.02
49473;BME280;67434;50.956;6.918;2023-03-04T11:47:47;101948.50;;;6.82;67.61
49473;BME280;67434;50.956;6.918;2023-03-04T11:50:40;101948.09;;;6.85;67.44
49473;BME280;67434;50.956;6.918;2023-03-04T11:53:49;101939.00;;;6.93;67.22
49473;BME280;67434;50.956;6.918;2023-03-04T11:56:41;101937.41;;;7.12;66.64
49473;BME280;67434;50.956;6.918;2023-03-04T12:02:13;101941.34;;;7.16;66.80
49473;BME280;67434;50.956;6.918;2023-03-04T12:05:16;101932.41;;;7.02;67.24
49473;BME280;67434;50.956;6.918;2023-03-04T12:08:20;101922.03;;;6.79;67.91
49473;BME280;67434;50.956;6.918;2023-03-04T12:16:27;101909.63;;;6.78;67.67
49473;BME280;67434;50.956;6.918;2023-03-04T12:19:02;101905.06;;;6.85;67.22
49473;BME280;67434;50.956;6.918;2023-03-04T12:21:58;101900.16;;;7.09;66.44
49473;BME280;67434;50.956;6.918;2023-03-04T12:24:46;101890.25;;;7.49;65.25
49473;BME280;67434;50.956;6.918;2023-03-04T12:27:23;101889.38;;;7.75;64.16
49473;BME280;67434;50.956;6.918;2023-03-04T12:29:57;101886.03;;;7.79;63.88
49473;BME280;67434;50.956;6.918;2023-03-04T12:38:09;101880.50;;;7.41;65.03
49473;BME280;67434;50.956;6.918;2023-03-04T12:46:25;101873.91;;;7.50;64.42
49473;BME280;67434;50.956;6.918;2023-03-04T12:54:39;101861.47;;;7.49;64.56
49473;BME280;67434;50.956;6.918;2023-03-04T12:57:21;101858.97;;;7.61;64.24
49473;BME280;67434;50.956;6.918;2023-03-04T13:00:16;101857.09;;;7.62;64.44
49473;BME280;67434;50.956;6.918;2023-03-04T13:03:09;101851.72;;;7.62;64.72
49473;BME280;67434;50.956;6.918;2023-03-04T13:08:10;101846.31;;;7.75;64.43
49473;BME280;67434;50.956;6.918;2023-03-04T13:10:38;101853.19;;;7.58;64.73
49473;BME280;67434;50.956;6.918;2023-03-04T13:13:03;101845.53;;;7.41;65.00
49473;BME280;67434;50.956;6.918;2023-03-04T13:15:37;101842.84;;;7.41;65.33
49473;BME280;67434;50.956;6.918;2023-03-04T13:18:29;101833.75;;;7.29;65.56
49473;BME280;67434;50.956;6.918;2023-03-04T13:21:05;101843.06;;;7.33;65.88
49473;BME280;67434;50.956;6.918;2023-03-04T13:23:44;101833.94;;;7.41;65.07
49473;BME280;67434;50.956;6.918;2023-03-04T13:26:17;101832.31;;;7.27;65.40
49473;BME280;67434;50.956;6.918;2023-03-04T13:28:43;101830.66;;;7.32;65.30
49473;BME280;67434;50.956;6.918;2023-03-04T13:31:15;101824.00;;;7.41;65.20
49473;BME280;67434;50.956;6.918;2023-03-04T13:33:54;101821.53;;;7.40;65.29
49473;BME280;67434;50.956;6.918;2023-03-04T13:36:30;101815.75;;;7.36;65.53
49473;BME280;67434;50.956;6.918;2023-03-04T13:41:53;101816.75;;;7.42;65.39
49473;BME280;67434;50.956;6.918;2023-03-04T13:44:54;101807.88;;;7.35;65.58
49473;BME280;67434;50.956;6.918;2023-03-04T13:47:27;101817.59;;;7.36;65.86
49473;BME280;67434;50.956;6.918;2023-03-04T13:50:32;101809.56;;;7.29;66.00
49473;BME280;67434;50.956;6.918;2023-03-04T13:53:28;101814.94;;;7.29;66.23
49473;BME280;67434;50.956;6.918;2023-03-04T13:56:04;101808.72;;;7.22;66.80
49473;BME280;67434;50.956;6.918;2023-03-04T13:58:31;101797.78;;;7.17;67.09
49473;BME280;67434;50.956;6.918;2023-03-04T14:00:57;101798.81;;;7.22;67.26
49473;BME280;67434;50.956;6.918;2023-03-04T14:03:26;101797.56;;;7.25;67.21
49473;BME280;67434;50.956;6.918;2023-03-04T14:08:35;101788.69;;;7.11;67.88
49473;BME280;67434;50.956;6.918;2023-03-04T14:11:00;101789.50;;;7.05;67.96
49473;BME280;67434;50.956;6.918;2023-03-04T14:13:26;101795.31;;;7.09;68.25
49473;BME280;67434;50.956;6.918;2023-03-04T14:15:56;101790.53;;;7.04;68.82